sensor_id;sensor_type;location;lat;lon;timestamp;P1;durP1;ratioP1;P2;durP2;ratioP2
5898;SDS011;2975;50.956;6.962;2022-09-21T00:01:22;7.07;;;4.57;;
5898;SDS011;2975;50.956;6.962;2022-09-21T00:03:53;8.87;;;4.77;;
5898;SDS011;2975;50.956;6.962;2022-09-21T00:06:21;9.43;;;5.07;;
5898;SDS011;2975;50.956;6.962;2022-09-21T00:08:48;7.87;;;5.20;;
5898;SDS011;2975;50.956;6.962;2022-09-21T00:11:16;7.40;;;4.67;;
5898;SDS011;2975;50.956;6.962;2022-09-21T00:13:44;11.30;;;5.53;;
5898;SDS011;2975;50.956;6.962;2022-09-21T00:16:11;8.63;;;5.00;;
5898;SDS011;2975;50.956;6.962;2022-09-21T00:18:37;7.97;;;4.27;;
5898;SDS011;2975;50.956;6.962;2022-09-21T00:21:07;8.70;;;4.23;;
5898;SDS011;2975;50.956;6.962;2022-09-21T00:23:35;7.73;;;4.67;;
5898;SDS011;2975;50.956;6.962;2022-09-21T00:26:20;8.07;;;4.40;;
5898;SDS011;2975;50.956;6.962;2022-09-21T00:28:51;11.67;;;5.13;;
5898;SDS011;2975;50.956;6.962;2022-09-21T00:31:21;13.47;;;5.83;;
5898;SDS011;2975;50.956;6.962;2022-09-21T00:33:47;10.00;;;5.53;;
5898;SDS011;2975;50.956;6.962;2022-09-21T00:36:15;8.13;;;4.63;;
5898;SDS011;2975;50.956;6.962;2022-09-21T00:38:42;9.70;;;5.77;;
5898;SDS011;2975;50.956;6.962;2022-09-21T00:41:10;10.07;;;4.90;;
5898;SDS011;2975;50.956;6.962;2022-09-21T00:43:39;7.13;;;4.73;;
5898;SDS011;2975;50.956;6.962;2022-09-21T00:46:13;11.67;;;5.03;;
5898;SDS011;2975;50.956;6.962;2022-09-21T00:48:48;9.87;;;5.23;;
5898;SDS011;2975;50.956;6.962;2022-09-21T00:51:13;9.27;;;4.83;;
5898;SDS011;2975;50.956;6.962;2022-09-21T00:53:40;7.73;;;4.97;;
5898;SDS011;2975;50.956;6.962;2022-09-21T00:56:05;10.03;;;4.70;;
5898;SDS011;2975;50.956;6.962;2022-09-21T00:58:37;9.13;;;4.43;;
5898;SDS011;2975;50.956;6.962;2022-09-21T01:01:08;9.17;;;4.90;;
5898;SDS011;2975;50.956;6.962;2022-09-21T01:03:36;9.50;;;5.13;;
5898;SDS011;2975;50.956;6.962;2022-09-21T01:06:03;7.63;;;4.23;;
5898;SDS011;2975;50.956;6.962;2022-09-21T01:08:29;8.80;;;4.70;;
5898;SDS011;2975;50.956;6.962;2022-09-21T01:19:32;10.70;;;4.63;;
5898;SDS011;2975;50.956;6.962;2022-09-21T01:22:42;10.27;;;5.13;;
5898;SDS011;2975;50.956;6.962;2022-09-21T01:31:20;6.93;;;4.97;;
5898;SDS011;2975;50.956;6.962;2022-09-21T01:33:51;8.53;;;4.67;;
5898;SDS011;2975;50.956;6.962;2022-09-21T01:36:23;10.73;;;5.03;;
5898;SDS011;2975;50.956;6.962;2022-09-21T01:38:53;7.07;;;4.40;;
5898;SDS011;2975;50.956;6.962;2022-09-21T01:41:22;8.23;;;4.50;;
5898;SDS011;2975;50.956;6.962;2022-09-21T01:43:54;6.90;;;4.00;;
5898;SDS011;2975;50.956;6.962;2022-09-21T01:46:26;8.00;;;3.70;;
5898;SDS011;2975;50.956;6.962;2022-09-21T01:48:55;6.20;;;4.33;;
5898;SDS011;2975;50.956;6.962;2022-09-21T01:51:25;8.83;;;4.50;;
5898;SDS011;2975;50.956;6.962;2022-09-21T01:56:26;9.53;;;4.57;;
5898;SDS011;2975;50.956;6.962;2022-09-21T01:59:12;11.80;;;4.37;;
5898;SDS011;2975;50.956;6.962;2022-09-21T02:01:48;5.73;;;4.37;;
5898;SDS011;2975;50.956;6.962;2022-09-21T02:04:26;6.03;;;3.80;;
5898;SDS011;2975;50.956;6.962;2022-09-21T02:06:52;6.67;;;3.83;;
5898;SDS011;2975;50.956;6.962;2022-09-21T02:09:18;8.10;;;4.00;;
5898;SDS011;2975;50.956;6.962;2022-09-21T02:11:44;7.50;;;4.03;;
5898;SDS011;2975;50.956;6.962;2022-09-21T02:14:10;5.80;;;3.77;;
5898;SDS011;2975;50.956;6.962;2022-09-21T02:16:52;7.87;;;3.37;;
5898;SDS011;2975;50.956;6.962;2022-09-21T02:19:24;8.00;;;4.40;;
5898;SDS011;2975;50.956;6.962;2022-09-21T02:24:56;8.43;;;4.30;;
5898;SDS011;2975;50.956;6.962;2022-09-21T02:30:20;5.77;;;4.00;;
5898;SDS011;2975;50.956;6.962;2022-09-21T02:41:14;8.53;;;4.23;;
5898;SDS011;2975;50.956;6.962;2022-09-21T02:43:45;5.73;;;3.50;;
5898;SDS011;2975;50.956;6.962;2022-09-21T02:46:24;8.20;;;4.30;;
5898;SDS011;2975;50.956;6.962;2022-09-21T02:48:54;5.17;;;3.40;;
5898;SDS011;2975;50.956;6.962;2022-09-21T02:51:26;10.73;;;3.70;;
5898;SDS011;2975;50.956;6.962;2022-09-21T02:53:55;5.30;;;3.80;;
5898;SDS011;2975;50.956;6.962;2022-09-21T02:56:22;6.53;;;3.67;;
5898;SDS011;2975;50.956;6.962;2022-09-21T02:58:49;6.73;;;3.93;;
5898;SDS011;2975;50.956;6.962;2022-09-21T03:01:19;9.17;;;4.30;;
5898;SDS011;2975;50.956;6.962;2022-09-21T03:03:46;5.20;;;4.13;;
5898;SDS011;2975;50.956;6.962;2022-09-21T03:06:12;10.77;;;4.13;;
5898;SDS011;2975;50.956;6.962;2022-09-21T03:08:38;9.27;;;4.93;;
5898;SDS011;2975;50.956;6.962;2022-09-21T03:11:05;5.63;;;4.03;;
5898;SDS011;2975;50.956;6.962;2022-09-21T03:13:31;12.30;;;5.23;;
5898;SDS011;2975;50.956;6.962;2022-09-21T03:16:05;9.57;;;4.43;;
5898;SDS011;2975;50.956;6.962;2022-09-21T03:18:31;9.93;;;4.50;;
5898;SDS011;2975;50.956;6.962;2022-09-21T03:20:57;8.73;;;4.43;;
5898;SDS011;2975;50.956;6.962;2022-09-21T03:23:23;10.20;;;4.93;;
5898;SDS011;2975;50.956;6.962;2022-09-21T03:25:49;5.27;;;4.47;;
5898;SDS011;2975;50.956;6.962;2022-09-21T03:28:21;7.87;;;3.90;;
5898;SDS011;2975;50.956;6.962;2022-09-21T03:30:48;7.73;;;4.50;;
5898;SDS011;2975;50.956;6.962;2022-09-21T03:33:15;7.93;;;4.17;;
5898;SDS011;2975;50.956;6.962;2022-09-21T03:35:41;6.70;;;3.90;;
5898;SDS011;2975;50.956;6.962;2022-09-21T03:38:07;6.20;;;4.23;;
5898;SDS011;2975;50.956;6.962;2022-09-21T03:40:33;7.53;;;3.97;;
5898;SDS011;2975;50.956;6.962;2022-09-21T03:42:59;8.47;;;4.23;;
5898;SDS011;2975;50.956;6.962;2022-09-21T03:45:25;7.17;;;4.23;;
5898;SDS011;2975;50.956;6.962;2022-09-21T03:47:53;5.37;;;3.90;;
5898;SDS011;2975;50.956;6.962;2022-09-21T03:50:20;9.30;;;4.50;;
5898;SDS011;2975;50.956;6.962;2022-09-21T03:52:46;9.03;;;4.27;;
5898;SDS011;2975;50.956;6.962;2022-09-21T03:55:12;9.50;;;4.97;;
5898;SDS011;2975;50.956;6.962;2022-09-21T03:57:37;8.43;;;4.53;;
5898;SDS011;2975;50.956;6.962;2022-09-21T04:00:07;6.50;;;4.40;;
5898;SDS011;2975;50.956;6.962;2022-09-21T04:02:35;6.43;;;4.57;;
5898;SDS011;2975;50.956;6.962;2022-09-21T04:05:02;6.87;;;4.63;;
5898;SDS011;2975;50.956;6.962;2022-09-21T04:07:32;9.17;;;5.33;;
5898;SDS011;2975;50.956;6.962;2022-09-21T04:09:59;8.17;;;5.33;;
5898;SDS011;2975;50.956;6.962;2022-09-21T04:12:25;8.00;;;4.43;;
5898;SDS011;2975;50.956;6.962;2022-09-21T04:14:51;9.00;;;4.77;;
5898;SDS011;2975;50.956;6.962;2022-09-21T04:17:17;12.13;;;4.97;;
5898;SDS011;2975;50.956;6.962;2022-09-21T04:19:42;10.37;;;5.00;;
5898;SDS011;2975;50.956;6.962;2022-09-21T04:22:11;7.40;;;4.97;;
5898;SDS011;2975;50.956;6.962;2022-09-21T04:24:37;8.17;;;5.03;;
5898;SDS011;2975;50.956;6.962;2022-09-21T04:27:05;9.53;;;5.30;;
5898;SDS011;2975;50.956;6.962;2022-09-21T04:29:31;9.00;;;4.77;;
5898;SDS011;2975;50.956;6.962;2022-09-21T04:31:57;10.40;;;5.93;;
5898;SDS011;2975;50.956;6.962;2022-09-21T04:34:22;10.57;;;5.27;;
5898;SDS011;2975;50.956;6.962;2022-09-21T04:36:48;7.63;;;6.10;;
5898;SDS011;2975;50.956;6.962;2022-09-21T04:39:13;10.73;;;5.67;;
5898;SDS011;2975;50.956;6.962;2022-09-21T04:41:39;7.80;;;5.80;;
5898;SDS011;2975;50.956;6.962;2022-09-21T04:44:06;10.77;;;6.00;;
5898;SDS011;2975;50.956;6.962;2022-09-21T04:46:32;9.03;;;6.23;;
5898;SDS011;2975;50.956;6.962;2022-09-21T04:48:57;8.90;;;6.60;;
5898;SDS011;2975;50.956;6.962;2022-09-21T04:51:23;10.60;;;6.03;;
5898;SDS011;2975;50.956;6.962;2022-09-21T04:53:49;10.40;;;5.83;;
5898;SDS011;2975;50.956;6.962;2022-09-21T04:56:15;8.77;;;6.27;;
5898;SDS011;2975;50.956;6.962;2022-09-21T04:58:41;9.77;;;6.07;;
5898;SDS011;2975;50.956;6.962;2022-09-21T05:01:07;9.23;;;6.60;;
5898;SDS011;2975;50.956;6.962;2022-09-21T05:03:33;10.00;;;6.10;;
5898;SDS011;2975;50.956;6.962;2022-09-21T05:05:58;8.30;;;6.30;;
5898;SDS011;2975;50.956;6.962;2022-09-21T05:08:25;8.60;;;5.90;;
5898;SDS011;2975;50.956;6.962;2022-09-21T05:11:11;7.83;;;5.70;;
5898;SDS011;2975;50.956;6.962;2022-09-21T05:13:40;8.50;;;5.93;;
5898;SDS011;2975;50.956;6.962;2022-09-21T05:16:06;10.00;;;5.97;;
5898;SDS011;2975;50.956;6.962;2022-09-21T05:18:32;8.77;;;6.10;;
5898;SDS011;2975;50.956;6.962;2022-09-21T05:20:58;10.37;;;6.23;;
5898;SDS011;2975;50.956;6.962;2022-09-21T05:23:25;9.37;;;6.60;;
5898;SDS011;2975;50.956;6.962;2022-09-21T05:25:53;11.33;;;5.40;;
5898;SDS011;2975;50.956;6.962;2022-09-21T05:28:20;16.90;;;6.30;;
5898;SDS011;2975;50.956;6.962;2022-09-21T05:31:03;9.03;;;6.47;;
5898;SDS011;2975;50.956;6.962;2022-09-21T05:33:41;11.80;;;6.40;;
5898;SDS011;2975;50.956;6.962;2022-09-21T05:39:10;9.67;;;6.73;;
5898;SDS011;2975;50.956;6.962;2022-09-21T05:41:36;10.83;;;6.33;;
5898;SDS011;2975;50.956;6.962;2022-09-21T05:44:03;10.47;;;6.40;;
5898;SDS011;2975;50.956;6.962;2022-09-21T05:46:40;10.67;;;7.00;;
5898;SDS011;2975;50.956;6.962;2022-09-21T05:49:17;8.17;;;5.93;;
5898;SDS011;2975;50.956;6.962;2022-09-21T05:51:58;8.03;;;6.27;;
5898;SDS011;2975;50.956;6.962;2022-09-21T06:00:15;14.00;;;6.67;;
5898;SDS011;2975;50.956;6.962;2022-09-21T06:05:30;11.77;;;7.00;;
5898;SDS011;2975;50.956;6.962;2022-09-21T06:07:55;10.33;;;6.57;;
5898;SDS011;2975;50.956;6.962;2022-09-21T06:10:21;9.87;;;6.50;;
5898;SDS011;2975;50.956;6.962;2022-09-21T06:12:49;9.13;;;6.97;;
5898;SDS011;2975;50.956;6.962;2022-09-21T06:15:15;9.57;;;7.10;;
5898;SDS011;2975;50.956;6.962;2022-09-21T06:17:41;9.57;;;6.47;;
5898;SDS011;2975;50.956;6.962;2022-09-21T06:20:07;9.27;;;6.63;;
5898;SDS011;2975;50.956;6.962;2022-09-21T06:22:33;8.23;;;5.90;;
5898;SDS011;2975;50.956;6.962;2022-09-21T06:24:59;9.53;;;6.40;;
5898;SDS011;2975;50.956;6.962;2022-09-21T06:27:26;13.37;;;6.70;;
5898;SDS011;2975;50.956;6.962;2022-09-21T06:29:53;10.73;;;6.00;;
5898;SDS011;2975;50.956;6.962;2022-09-21T06:32:18;12.03;;;5.93;;
5898;SDS011;2975;50.956;6.962;2022-09-21T06:34:44;9.07;;;6.43;;
5898;SDS011;2975;50.956;6.962;2022-09-21T06:37:10;8.57;;;5.87;;
5898;SDS011;2975;50.956;6.962;2022-09-21T06:39:35;9.93;;;5.93;;
5898;SDS011;2975;50.956;6.962;2022-09-21T06:42:01;10.57;;;6.33;;
5898;SDS011;2975;50.956;6.962;2022-09-21T06:44:26;8.47;;;5.70;;
5898;SDS011;2975;50.956;6.962;2022-09-21T06:46:53;11.20;;;5.70;;
5898;SDS011;2975;50.956;6.962;2022-09-21T06:49:19;8.20;;;5.70;;
5898;SDS011;2975;50.956;6.962;2022-09-21T06:51:46;11.83;;;5.60;;
5898;SDS011;2975;50.956;6.962;2022-09-21T06:54:12;10.50;;;5.93;;
5898;SDS011;2975;50.956;6.962;2022-09-21T06:56:37;7.87;;;5.07;;
5898;SDS011;2975;50.956;6.962;2022-09-21T06:59:03;7.50;;;5.90;;
5898;SDS011;2975;50.956;6.962;2022-09-21T07:01:28;10.73;;;5.87;;
5898;SDS011;2975;50.956;6.962;2022-09-21T07:03:54;14.23;;;6.37;;
5898;SDS011;2975;50.956;6.962;2022-09-21T07:06:20;7.90;;;5.37;;
5898;SDS011;2975;50.956;6.962;2022-09-21T07:08:46;12.20;;;5.97;;
5898;SDS011;2975;50.956;6.962;2022-09-21T07:11:12;8.80;;;5.30;;
5898;SDS011;2975;50.956;6.962;2022-09-21T07:13:38;7.67;;;5.60;;
5898;SDS011;2975;50.956;6.962;2022-09-21T07:16:05;8.77;;;5.57;;
5898;SDS011;2975;50.956;6.962;2022-09-21T07:18:34;11.00;;;5.37;;
5898;SDS011;2975;50.956;6.962;2022-09-21T07:21:05;6.97;;;4.77;;
5898;SDS011;2975;50.956;6.962;2022-09-21T07:23:32;12.33;;;6.17;;
5898;SDS011;2975;50.956;6.962;2022-09-21T07:26:02;10.43;;;5.17;;
5898;SDS011;2975;50.956;6.962;2022-09-21T07:28:32;9.23;;;5.57;;
5898;SDS011;2975;50.956;6.962;2022-09-21T07:31:04;13.27;;;5.57;;
5898;SDS011;2975;50.956;6.962;2022-09-21T07:33:31;11.47;;;6.20;;
5898;SDS011;2975;50.956;6.962;2022-09-21T07:35:57;12.33;;;6.53;;
5898;SDS011;2975;50.956;6.962;2022-09-21T07:38:24;12.40;;;6.13;;
5898;SDS011;2975;50.956;6.962;2022-09-21T07:40:51;9.00;;;5.80;;
5898;SDS011;2975;50.956;6.962;2022-09-21T07:43:16;13.90;;;6.70;;
5898;SDS011;2975;50.956;6.962;2022-09-21T07:45:42;14.20;;;6.43;;
5898;SDS011;2975;50.956;6.962;2022-09-21T07:48:08;13.97;;;8.00;;
5898;SDS011;2975;50.956;6.962;2022-09-21T07:50:33;10.93;;;6.80;;
5898;SDS011;2975;50.956;6.962;2022-09-21T07:53:00;10.80;;;6.50;;
5898;SDS011;2975;50.956;6.962;2022-09-21T07:55:26;14.07;;;7.23;;
5898;SDS011;2975;50.956;6.962;2022-09-21T07:57:52;13.70;;;7.37;;
5898;SDS011;2975;50.956;6.962;2022-09-21T08:00:36;14.37;;;7.90;;
5898;SDS011;2975;50.956;6.962;2022-09-21T08:03:03;10.80;;;7.00;;
5898;SDS011;2975;50.956;6.962;2022-09-21T08:05:30;13.07;;;7.73;;
5898;SDS011;2975;50.956;6.962;2022-09-21T08:07:56;11.63;;;7.40;;
5898;SDS011;2975;50.956;6.962;2022-09-21T08:10:22;9.77;;;7.40;;
5898;SDS011;2975;50.956;6.962;2022-09-21T08:12:51;15.73;;;6.93;;
5898;SDS011;2975;50.956;6.962;2022-09-21T08:15:16;11.57;;;7.23;;
5898;SDS011;2975;50.956;6.962;2022-09-21T08:17:42;15.93;;;7.57;;
5898;SDS011;2975;50.956;6.962;2022-09-21T08:20:08;12.03;;;7.60;;
5898;SDS011;2975;50.956;6.962;2022-09-21T08:22:34;12.03;;;7.33;;
5898;SDS011;2975;50.956;6.962;2022-09-21T08:24:59;16.50;;;8.30;;
5898;SDS011;2975;50.956;6.962;2022-09-21T08:27:25;14.47;;;7.10;;
5898;SDS011;2975;50.956;6.962;2022-09-21T08:29:51;14.53;;;8.77;;
5898;SDS011;2975;50.956;6.962;2022-09-21T08:32:16;11.57;;;7.10;;
5898;SDS011;2975;50.956;6.962;2022-09-21T08:34:42;14.47;;;8.97;;
5898;SDS011;2975;50.956;6.962;2022-09-21T08:37:07;14.20;;;7.53;;
5898;SDS011;2975;50.956;6.962;2022-09-21T08:39:33;12.00;;;8.13;;
5898;SDS011;2975;50.956;6.962;2022-09-21T08:42:03;13.83;;;7.83;;
5898;SDS011;2975;50.956;6.962;2022-09-21T08:44:40;11.23;;;7.93;;
5898;SDS011;2975;50.956;6.962;2022-09-21T08:47:10;14.47;;;7.63;;
5898;SDS011;2975;50.956;6.962;2022-09-21T08:49:52;12.17;;;7.57;;
5898;SDS011;2975;50.956;6.962;2022-09-21T08:52:21;11.30;;;7.50;;
5898;SDS011;2975;50.956;6.962;2022-09-21T08:57:18;12.50;;;6.73;;
5898;SDS011;2975;50.956;6.962;2022-09-21T08:59:46;13.47;;;6.33;;
5898;SDS011;2975;50.956;6.962;2022-09-21T09:18:42;13.03;;;7.07;;
5898;SDS011;2975;50.956;6.962;2022-09-21T09:24:01;13.87;;;7.00;;
5898;SDS011;2975;50.956;6.962;2022-09-21T09:26:35;13.27;;;7.40;;
5898;SDS011;2975;50.956;6.962;2022-09-21T09:31:35;8.53;;;6.50;;
5898;SDS011;2975;50.956;6.962;2022-09-21T09:36:34;10.90;;;6.73;;
5898;SDS011;2975;50.956;6.962;2022-09-21T09:39:03;11.53;;;7.50;;
5898;SDS011;2975;50.956;6.962;2022-09-21T09:52:33;12.73;;;5.37;;
5898;SDS011;2975;50.956;6.962;2022-09-21T09:55:00;12.00;;;5.30;;
5898;SDS011;2975;50.956;6.962;2022-09-21T09:57:46;8.43;;;4.73;;
5898;SDS011;2975;50.956;6.962;2022-09-21T10:00:14;6.33;;;4.20;;
5898;SDS011;2975;50.956;6.962;2022-09-21T10:07:59;9.53;;;4.73;;
5898;SDS011;2975;50.956;6.962;2022-09-21T10:15:29;7.10;;;4.33;;
5898;SDS011;2975;50.956;6.962;2022-09-21T10:17:56;7.40;;;3.97;;
5898;SDS011;2975;50.956;6.962;2022-09-21T10:20:54;4.43;;;3.07;;
5898;SDS011;2975;50.956;6.962;2022-09-21T10:23:27;5.87;;;2.40;;
5898;SDS011;2975;50.956;6.962;2022-09-21T10:25:58;9.53;;;3.47;;
5898;SDS011;2975;50.956;6.962;2022-09-21T10:28:31;6.83;;;3.67;;
5898;SDS011;2975;50.956;6.962;2022-09-21T10:36:23;4.47;;;2.43;;
5898;SDS011;2975;50.956;6.962;2022-09-21T10:38:51;5.80;;;2.93;;
5898;SDS011;2975;50.956;6.962;2022-09-21T10:41:17;4.90;;;2.80;;
5898;SDS011;2975;50.956;6.962;2022-09-21T10:43:43;5.27;;;2.20;;
5898;SDS011;2975;50.956;6.962;2022-09-21T10:46:09;4.17;;;2.60;;
5898;SDS011;2975;50.956;6.962;2022-09-21T10:48:35;6.37;;;2.87;;
5898;SDS011;2975;50.956;6.962;2022-09-21T10:51:01;4.77;;;2.50;;
5898;SDS011;2975;50.956;6.962;2022-09-21T10:58:41;5.77;;;2.40;;
5898;SDS011;2975;50.956;6.962;2022-09-21T11:01:56;4.40;;;2.40;;
5898;SDS011;2975;50.956;6.962;2022-09-21T11:07:08;7.27;;;2.77;;
5898;SDS011;2975;50.956;6.962;2022-09-21T11:09:41;5.73;;;2.80;;
5898;SDS011;2975;50.956;6.962;2022-09-21T11:15:08;3.87;;;2.37;;
5898;SDS011;2975;50.956;6.962;2022-09-21T11:18:03;4.57;;;2.40;;
5898;SDS011;2975;50.956;6.962;2022-09-21T11:20:47;6.03;;;2.53;;
5898;SDS011;2975;50.956;6.962;2022-09-21T11:26:11;7.40;;;2.00;;
5898;SDS011;2975;50.956;6.962;2022-09-21T11:28:58;4.20;;;1.90;;
5898;SDS011;2975;50.956;6.962;2022-09-21T11:31:47;4.50;;;2.20;;
5898;SDS011;2975;50.956;6.962;2022-09-21T11:34:44;5.57;;;2.07;;
5898;SDS011;2975;50.956;6.962;2022-09-21T11:42:52;3.90;;;2.27;;
5898;SDS011;2975;50.956;6.962;2022-09-21T11:54:22;2.40;;;1.57;;
5898;SDS011;2975;50.956;6.962;2022-09-21T12:06:02;5.73;;;2.03;;
5898;SDS011;2975;50.956;6.962;2022-09-21T12:08:53;5.90;;;1.30;;
5898;SDS011;2975;50.956;6.962;2022-09-21T12:13:55;3.40;;;1.63;;
5898;SDS011;2975;50.956;6.962;2022-09-21T12:16:34;4.83;;;1.23;;
5898;SDS011;2975;50.956;6.962;2022-09-21T12:21:48;2.57;;;1.20;;
5898;SDS011;2975;50.956;6.962;2022-09-21T12:24:42;2.00;;;1.33;;
5898;SDS011;2975;50.956;6.962;2022-09-21T12:30:15;3.13;;;1.27;;
5898;SDS011;2975;50.956;6.962;2022-09-21T12:32:53;1.83;;;0.90;;
5898;SDS011;2975;50.956;6.962;2022-09-21T12:35:33;3.80;;;1.37;;
5898;SDS011;2975;50.956;6.962;2022-09-21T12:38:12;4.50;;;1.30;;
5898;SDS011;2975;50.956;6.962;2022-09-21T12:46:01;5.57;;;1.77;;
5898;SDS011;2975;50.956;6.962;2022-09-21T12:48:51;3.97;;;1.60;;
5898;SDS011;2975;50.956;6.962;2022-09-21T12:53:49;6.37;;;1.40;;
5898;SDS011;2975;50.956;6.962;2022-09-21T12:58:58;4.13;;;1.10;;
5898;SDS011;2975;50.956;6.962;2022-09-21T13:01:44;4.10;;;1.30;;
5898;SDS011;2975;50.956;6.962;2022-09-21T13:07:17;4.83;;;1.50;;
5898;SDS011;2975;50.956;6.962;2022-09-21T13:09:48;1.20;;;0.80;;
5898;SDS011;2975;50.956;6.962;2022-09-21T13:12:19;1.90;;;0.97;;
5898;SDS011;2975;50.956;6.962;2022-09-21T13:14:54;1.10;;;0.80;;
5898;SDS011;2975;50.956;6.962;2022-09-21T13:17:29;1.97;;;0.80;;
5898;SDS011;2975;50.956;6.962;2022-09-21T13:19:58;2.90;;;0.93;;
5898;SDS011;2975;50.956;6.962;2022-09-21T13:22:25;3.60;;;0.80;;
5898;SDS011;2975;50.956;6.962;2022-09-21T13:24:59;1.27;;;0.90;;
5898;SDS011;2975;50.956;6.962;2022-09-21T13:30:34;1.70;;;1.03;;
5898;SDS011;2975;50.956;6.962;2022-09-21T13:49:04;4.20;;;0.77;;
5898;SDS011;2975;50.956;6.962;2022-09-21T13:51:59;2.20;;;0.70;;
5898;SDS011;2975;50.956;6.962;2022-09-21T13:57:19;3.50;;;1.00;;
5898;SDS011;2975;50.956;6.962;2022-09-21T13:59:46;3.20;;;1.00;;
5898;SDS011;2975;50.956;6.962;2022-09-21T14:04:49;4.53;;;0.70;;
5898;SDS011;2975;50.956;6.962;2022-09-21T14:07:16;1.53;;;0.57;;
5898;SDS011;2975;50.956;6.962;2022-09-21T14:09:52;2.77;;;1.23;;
5898;SDS011;2975;50.956;6.962;2022-09-21T14:12:23;2.27;;;0.60;;
5898;SDS011;2975;50.956;6.962;2022-09-21T14:15:08;2.03;;;0.93;;
5898;SDS011;2975;50.956;6.962;2022-09-21T14:17:40;3.37;;;1.30;;
5898;SDS011;2975;50.956;6.962;2022-09-21T14:25:49;2.07;;;0.93;;
5898;SDS011;2975;50.956;6.962;2022-09-21T14:28:17;2.13;;;0.70;;
5898;SDS011;2975;50.956;6.962;2022-09-21T14:31:19;3.00;;;1.00;;
5898;SDS011;2975;50.956;6.962;2022-09-21T14:33:51;2.77;;;1.07;;
5898;SDS011;2975;50.956;6.962;2022-09-21T14:36:23;2.67;;;0.90;;
5898;SDS011;2975;50.956;6.962;2022-09-21T14:39:00;1.77;;;0.80;;
5898;SDS011;2975;50.956;6.962;2022-09-21T14:41:30;1.23;;;1.03;;
5898;SDS011;2975;50.956;6.962;2022-09-21T14:44:04;4.53;;;1.10;;
5898;SDS011;2975;50.956;6.962;2022-09-21T15:09:15;1.80;;;0.97;;
5898;SDS011;2975;50.956;6.962;2022-09-21T15:12:14;1.97;;;1.00;;
5898;SDS011;2975;50.956;6.962;2022-09-21T15:14:55;4.10;;;0.93;;
5898;SDS011;2975;50.956;6.962;2022-09-21T15:17:27;2.43;;;0.80;;
5898;SDS011;2975;50.956;6.962;2022-09-21T15:19:59;2.97;;;0.97;;
5898;SDS011;2975;50.956;6.962;2022-09-21T15:22:41;1.83;;;0.80;;
5898;SDS011;2975;50.956;6.962;2022-09-21T15:25:10;3.37;;;1.10;;
5898;SDS011;2975;50.956;6.962;2022-09-21T15:27:37;4.07;;;1.13;;
5898;SDS011;2975;50.956;6.962;2022-09-21T15:30:15;1.67;;;0.80;;
5898;SDS011;2975;50.956;6.962;2022-09-21T15:32:50;2.50;;;1.03;;
5898;SDS011;2975;50.956;6.962;2022-09-21T15:35:19;4.40;;;1.10;;
5898;SDS011;2975;50.956;6.962;2022-09-21T15:37:46;2.47;;;0.93;;
5898;SDS011;2975;50.956;6.962;2022-09-21T15:40:23;4.53;;;1.57;;
5898;SDS011;2975;50.956;6.962;2022-09-21T15:45:56;3.07;;;0.90;;
5898;SDS011;2975;50.956;6.962;2022-09-21T15:48:28;1.37;;;0.90;;
5898;SDS011;2975;50.956;6.962;2022-09-21T15:51:11;1.70;;;0.90;;
5898;SDS011;2975;50.956;6.962;2022-09-21T15:53:44;3.07;;;1.07;;
5898;SDS011;2975;50.956;6.962;2022-09-21T15:56:17;2.33;;;0.90;;
5898;SDS011;2975;50.956;6.962;2022-09-21T15:58:51;1.93;;;0.90;;
5898;SDS011;2975;50.956;6.962;2022-09-21T16:01:36;2.10;;;1.37;;
5898;SDS011;2975;50.956;6.962;2022-09-21T16:04:06;4.73;;;1.03;;
5898;SDS011;2975;50.956;6.962;2022-09-21T16:06:36;3.90;;;1.30;;
5898;SDS011;2975;50.956;6.962;2022-09-21T16:11:50;2.23;;;1.30;;
5898;SDS011;2975;50.956;6.962;2022-09-21T16:14:17;2.43;;;1.47;;
5898;SDS011;2975;50.956;6.962;2022-09-21T16:17:18;2.33;;;1.40;;
5898;SDS011;2975;50.956;6.962;2022-09-21T16:22:21;8.77;;;4.70;;
5898;SDS011;2975;50.956;6.962;2022-09-21T16:27:51;6.27;;;5.13;;
5898;SDS011;2975;50.956;6.962;2022-09-21T16:33:32;10.17;;;7.10;;
5898;SDS011;2975;50.956;6.962;2022-09-21T16:35:58;7.27;;;4.63;;
5898;SDS011;2975;50.956;6.962;2022-09-21T16:38:25;4.40;;;3.27;;
5898;SDS011;2975;50.956;6.962;2022-09-21T16:40:51;4.40;;;3.37;;
5898;SDS011;2975;50.956;6.962;2022-09-21T16:43:18;5.40;;;4.23;;
5898;SDS011;2975;50.956;6.962;2022-09-21T16:45:44;4.97;;;3.27;;
5898;SDS011;2975;50.956;6.962;2022-09-21T16:48:11;6.53;;;3.40;;
5898;SDS011;2975;50.956;6.962;2022-09-21T16:50:37;4.50;;;1.70;;
5898;SDS011;2975;50.956;6.962;2022-09-21T16:53:03;2.43;;;1.40;;
5898;SDS011;2975;50.956;6.962;2022-09-21T16:55:29;1.97;;;1.23;;
5898;SDS011;2975;50.956;6.962;2022-09-21T16:57:55;3.53;;;1.30;;
5898;SDS011;2975;50.956;6.962;2022-09-21T17:00:21;3.07;;;0.90;;
5898;SDS011;2975;50.956;6.962;2022-09-21T17:02:47;3.10;;;1.57;;
5898;SDS011;2975;50.956;6.962;2022-09-21T17:05:13;4.23;;;1.43;;
5898;SDS011;2975;50.956;6.962;2022-09-21T17:07:52;3.53;;;1.10;;
5898;SDS011;2975;50.956;6.962;2022-09-21T17:10:19;3.77;;;2.10;;
5898;SDS011;2975;50.956;6.962;2022-09-21T17:12:53;7.07;;;1.47;;
5898;SDS011;2975;50.956;6.962;2022-09-21T17:15:20;4.93;;;1.20;;
5898;SDS011;2975;50.956;6.962;2022-09-21T17:17:47;4.20;;;1.20;;
5898;SDS011;2975;50.956;6.962;2022-09-21T17:20:15;4.20;;;1.27;;
5898;SDS011;2975;50.956;6.962;2022-09-21T17:22:44;5.13;;;1.30;;
5898;SDS011;2975;50.956;6.962;2022-09-21T17:25:10;2.57;;;1.17;;
5898;SDS011;2975;50.956;6.962;2022-09-21T17:27:35;3.03;;;1.33;;
5898;SDS011;2975;50.956;6.962;2022-09-21T17:30:02;5.83;;;1.40;;
5898;SDS011;2975;50.956;6.962;2022-09-21T17:32:35;4.37;;;1.43;;
5898;SDS011;2975;50.956;6.962;2022-09-21T17:35:16;2.00;;;1.33;;
5898;SDS011;2975;50.956;6.962;2022-09-21T17:37:58;5.97;;;1.43;;
5898;SDS011;2975;50.956;6.962;2022-09-21T17:40:24;1.37;;;1.23;;
5898;SDS011;2975;50.956;6.962;2022-09-21T17:42:51;1.90;;;0.93;;
5898;SDS011;2975;50.956;6.962;2022-09-21T17:45:27;2.00;;;1.10;;
5898;SDS011;2975;50.956;6.962;2022-09-21T17:48:02;1.07;;;1.00;;
5898;SDS011;2975;50.956;6.962;2022-09-21T17:50:29;3.67;;;1.60;;
5898;SDS011;2975;50.956;6.962;2022-09-21T17:52:55;3.60;;;1.20;;
5898;SDS011;2975;50.956;6.962;2022-09-21T17:55:50;2.23;;;1.27;;
5898;SDS011;2975;50.956;6.962;2022-09-21T17:58:24;3.03;;;1.40;;
5898;SDS011;2975;50.956;6.962;2022-09-21T18:01:12;4.03;;;1.90;;
5898;SDS011;2975;50.956;6.962;2022-09-21T18:03:43;3.97;;;1.80;;
5898;SDS011;2975;50.956;6.962;2022-09-21T18:06:09;4.50;;;2.33;;
5898;SDS011;2975;50.956;6.962;2022-09-21T18:08:35;3.47;;;2.07;;
5898;SDS011;2975;50.956;6.962;2022-09-21T18:13:49;3.53;;;1.80;;
5898;SDS011;2975;50.956;6.962;2022-09-21T18:16:33;5.90;;;1.70;;
5898;SDS011;2975;50.956;6.962;2022-09-21T18:24:59;4.20;;;2.20;;
5898;SDS011;2975;50.956;6.962;2022-09-21T18:27:27;6.60;;;2.80;;
5898;SDS011;2975;50.956;6.962;2022-09-21T18:29:52;5.80;;;3.30;;
5898;SDS011;2975;50.956;6.962;2022-09-21T18:32:22;8.13;;;2.83;;
5898;SDS011;2975;50.956;6.962;2022-09-21T18:35:07;4.80;;;2.30;;
5898;SDS011;2975;50.956;6.962;2022-09-21T18:43:33;6.67;;;2.93;;
5898;SDS011;2975;50.956;6.962;2022-09-21T18:48:49;6.80;;;2.63;;
5898;SDS011;2975;50.956;6.962;2022-09-21T18:51:23;8.20;;;3.20;;
5898;SDS011;2975;50.956;6.962;2022-09-21T18:53:55;7.23;;;2.87;;
5898;SDS011;2975;50.956;6.962;2022-09-21T18:56:22;9.20;;;3.43;;
5898;SDS011;2975;50.956;6.962;2022-09-21T18:58:50;8.23;;;3.00;;
5898;SDS011;2975;50.956;6.962;2022-09-21T19:01:16;3.50;;;2.10;;
5898;SDS011;2975;50.956;6.962;2022-09-21T19:03:44;7.20;;;2.73;;
5898;SDS011;2975;50.956;6.962;2022-09-21T19:08:43;10.57;;;2.47;;
5898;SDS011;2975;50.956;6.962;2022-09-21T19:11:35;6.73;;;2.63;;
5898;SDS011;2975;50.956;6.962;2022-09-21T19:19:28;7.20;;;2.60;;
5898;SDS011;2975;50.956;6.962;2022-09-21T19:25:07;5.07;;;2.30;;
5898;SDS011;2975;50.956;6.962;2022-09-21T19:27:57;4.03;;;2.07;;
5898;SDS011;2975;50.956;6.962;2022-09-21T19:30:25;3.63;;;1.73;;
5898;SDS011;2975;50.956;6.962;2022-09-21T19:32:52;6.07;;;2.30;;
5898;SDS011;2975;50.956;6.962;2022-09-21T19:38:00;6.63;;;2.40;;
5898;SDS011;2975;50.956;6.962;2022-09-21T19:40:28;6.03;;;1.80;;
5898;SDS011;2975;50.956;6.962;2022-09-21T19:48:28;4.67;;;1.80;;
5898;SDS011;2975;50.956;6.962;2022-09-21T19:50:58;3.07;;;2.10;;
5898;SDS011;2975;50.956;6.962;2022-09-21T19:53:24;6.27;;;2.33;;